createdAt,value
2023-03-27T00:01:25.404Z,0.88
2023-03-27T00:03:28.739Z,1.40
2023-03-27T00:05:31.334Z,1.00
2023-03-27T00:09:39.173Z,1.20
2023-03-27T00:11:41.207Z,1.50
2023-03-27T00:13:50.581Z,0.85
2023-03-27T00:15:55.040Z,1.20
2023-03-27T00:17:58.768Z,0.98
2023-03-27T00:20:00.599Z,1.00
2023-03-27T00:22:02.481Z,1.60
2023-03-27T00:24:04.229Z,1.10
2023-03-27T00:26:06.436Z,1.10
2023-03-27T00:28:08.485Z,1.25
2023-03-27T00:30:10.949Z,1.20
2023-03-27T00:32:12.719Z,1.00
2023-03-27T00:34:14.540Z,1.17
2023-03-27T00:36:16.315Z,1.37
2023-03-27T00:38:18.721Z,1.17
2023-03-27T00:40:20.769Z,1.25
2023-03-27T00:42:24.054Z,1.30
2023-03-27T00:44:31.237Z,1.00
2023-03-27T00:46:36.146Z,1.10
2023-03-27T00:48:38.220Z,1.00
2023-03-27T00:50:42.986Z,1.27
2023-03-27T00:52:49.138Z,0.80
2023-03-27T00:54:50.934Z,0.80
2023-03-27T00:56:55.648Z,1.30
2023-03-27T00:59:02.063Z,1.00
2023-03-27T01:01:03.878Z,0.90
2023-03-27T01:03:07.804Z,1.27
2023-03-27T01:05:11.484Z,1.40
2023-03-27T01:07:14.251Z,1.10
2023-03-27T01:09:20.807Z,1.10
2023-03-27T01:11:43.430Z,0.90
2023-03-27T01:14:13.599Z,1.02
2023-03-27T01:16:31.011Z,1.02
2023-03-27T01:18:56.082Z,1.20
2023-03-27T01:21:19.414Z,1.20
2023-03-27T01:23:59.412Z,1.20
2023-03-27T01:26:36.958Z,1.20
2023-03-27T01:29:03.928Z,0.88
2023-03-27T01:31:15.298Z,1.05
2023-03-27T01:33:38.934Z,0.98
2023-03-27T01:36:00.492Z,1.10
2023-03-27T01:38:20.644Z,1.20
2023-03-27T01:40:36.614Z,1.10
2023-03-27T01:42:49.112Z,1.27
2023-03-27T01:45:08.791Z,1.40
2023-03-27T01:47:19.827Z,0.93
2023-03-27T01:49:27.956Z,1.10
2023-03-27T01:51:43.991Z,1.00
2023-03-27T01:54:07.826Z,1.00
2023-03-27T01:56:18.536Z,1.40
2023-03-27T01:58:24.710Z,1.27
2023-03-27T02:00:28.429Z,1.13
2023-03-27T02:03:22.862Z,1.05
2023-03-27T02:05:46.896Z,1.33
2023-03-27T02:07:59.672Z,1.10
2023-03-27T02:10:06.659Z,1.27
2023-03-27T02:12:13.299Z,1.10
2023-03-27T02:14:23.250Z,0.90
2023-03-27T02:16:34.200Z,1.10
2023-03-27T02:18:40.719Z,1.20
2023-03-27T02:20:42.533Z,0.95
2023-03-27T02:22:48.783Z,1.13
2023-03-27T02:24:54.897Z,1.27
2023-03-27T02:27:12.923Z,1.33
2023-03-27T02:29:35.764Z,1.00
2023-03-27T02:31:46.809Z,1.17
2023-03-27T02:33:57.738Z,1.30
2023-03-27T02:36:09.379Z,0.88
2023-03-27T02:38:54.765Z,1.08
2023-03-27T02:41:08.928Z,1.25
2023-03-27T02:43:21.995Z,1.13
2023-03-27T02:45:43.283Z,1.38
2023-03-27T02:47:58.938Z,1.17
2023-03-27T02:50:05.787Z,1.17
2023-03-27T02:52:16.935Z,1.15
2023-03-27T02:54:32.408Z,1.30
2023-03-27T02:56:38.621Z,1.00
2023-03-27T02:59:11.084Z,1.15
2023-03-27T03:01:16.621Z,1.08
2023-03-27T03:03:32.052Z,1.02
2023-03-27T03:05:37.234Z,0.80
2023-03-27T03:07:40.189Z,0.95
2023-03-27T03:09:44.559Z,1.00
2023-03-27T03:11:51.404Z,1.13
2023-03-27T03:13:53.188Z,1.02
2023-03-27T03:15:55.028Z,1.37
2023-03-27T03:17:56.874Z,1.00
2023-03-27T03:19:58.665Z,1.00
2023-03-27T03:22:01.674Z,1.10
2023-03-27T03:24:03.678Z,0.95
2023-03-27T03:26:06.627Z,1.10
2023-03-27T03:28:09.868Z,1.27
2023-03-27T03:30:16.939Z,1.02
2023-03-27T03:32:19.312Z,0.90
2023-03-27T03:34:22.588Z,1.17
2023-03-27T03:36:24.404Z,1.10
2023-03-27T03:38:29.990Z,1.10
2023-03-27T03:40:40.036Z,1.30
2023-03-27T03:42:48.599Z,1.10
2023-03-27T03:44:50.762Z,1.02
2023-03-27T03:46:52.599Z,1.10
2023-03-27T03:48:54.550Z,1.20
2023-03-27T03:50:57.088Z,1.20
2023-03-27T03:52:59.356Z,1.00
2023-03-27T03:55:01.223Z,1.20
2023-03-27T03:57:03.460Z,0.90
2023-03-27T03:59:05.429Z,0.95
2023-03-27T04:01:09.085Z,1.10
2023-03-27T04:03:10.984Z,1.13
2023-03-27T04:05:13.069Z,1.02
2023-03-27T04:07:17.775Z,1.20
2023-03-27T04:09:19.750Z,1.00
2023-03-27T04:11:21.688Z,1.20
2023-03-27T04:13:23.956Z,1.13
2023-03-27T04:15:27.478Z,1.10
2023-03-27T04:17:29.452Z,1.40
2023-03-27T04:19:31.378Z,1.08
2023-03-27T04:21:33.209Z,1.20
2023-03-27T04:23:34.942Z,1.02
2023-03-27T04:25:36.791Z,1.20
2023-03-27T04:27:39.131Z,1.00
2023-03-27T04:29:43.527Z,1.33
2023-03-27T04:31:46.630Z,1.10
2023-03-27T04:33:52.174Z,1.17
2023-03-27T04:36:06.105Z,1.10
2023-03-27T04:38:09.548Z,1.20
2023-03-27T04:40:14.060Z,1.30
2023-03-27T04:42:16.018Z,1.27
2023-03-27T04:44:18.375Z,1.45
2023-03-27T04:46:20.187Z,1.70
2023-03-27T04:48:22.114Z,1.80
2023-03-27T04:50:24.694Z,1.52
2023-03-27T04:52:26.618Z,2.30
2023-03-27T04:54:31.715Z,2.30
2023-03-27T04:56:35.036Z,2.70
2023-03-27T04:58:37.495Z,2.42
2023-03-27T05:02:41.848Z,2.35
2023-03-27T05:04:43.654Z,2.80
2023-03-27T05:06:45.465Z,2.20
2023-03-27T05:08:47.302Z,2.07
2023-03-27T05:10:49.200Z,1.30
2023-03-27T05:12:53.075Z,1.42
2023-03-27T05:14:54.891Z,1.75
2023-03-27T05:16:57.807Z,1.60
2023-03-27T05:18:59.537Z,1.70
2023-03-27T05:21:01.282Z,1.60
2023-03-27T05:23:03.265Z,1.90
2023-03-27T05:25:05.493Z,1.55
2023-03-27T05:27:07.292Z,1.92
2023-03-27T05:29:09.304Z,1.80
2023-03-27T05:31:12.469Z,1.70
2023-03-27T05:33:14.458Z,1.45
2023-03-27T05:35:18.180Z,2.22
2023-03-27T05:37:20.612Z,1.60
2023-03-27T05:39:25.393Z,1.40
2023-03-27T05:41:27.173Z,1.35
2023-03-27T05:43:28.923Z,1.40
2023-03-27T05:45:31.116Z,1.40
2023-03-27T05:47:32.901Z,1.30
2023-03-27T05:49:34.729Z,1.40
2023-03-27T05:51:36.515Z,1.65
2023-03-27T05:53:39.402Z,1.93
2023-03-27T05:55:41.730Z,1.92
2023-03-27T05:57:43.481Z,1.70
2023-03-27T05:59:45.406Z,1.20
2023-03-27T06:01:49.013Z,1.70
2023-03-27T06:03:56.058Z,1.60
2023-03-27T06:06:01.414Z,1.70
2023-03-27T06:08:03.597Z,1.70
2023-03-27T06:10:07.728Z,1.65
2023-03-27T06:12:16.281Z,1.40
2023-03-27T06:14:18.034Z,1.60
2023-03-27T06:16:22.947Z,1.80
2023-03-27T06:18:24.958Z,1.70
2023-03-27T06:20:27.688Z,1.60
2023-03-27T06:22:29.571Z,1.50
2023-03-27T06:24:31.501Z,1.90
2023-03-27T06:26:33.986Z,1.80
2023-03-27T06:28:35.777Z,1.83
2023-03-27T06:30:40.658Z,1.70
2023-03-27T06:32:45.972Z,1.75
2023-03-27T06:34:50.080Z,1.80
2023-03-27T06:36:51.939Z,1.73
2023-03-27T06:38:54.476Z,1.80
2023-03-27T06:43:00.873Z,1.77
2023-03-27T06:45:04.725Z,1.98
2023-03-27T06:47:06.662Z,2.15
2023-03-27T06:49:08.493Z,2.00
2023-03-27T06:51:10.365Z,2.27
2023-03-27T06:53:25.921Z,1.90
2023-03-27T06:55:32.392Z,2.03
2023-03-27T06:57:34.279Z,2.00
2023-03-27T06:59:36.245Z,2.22
2023-03-27T07:01:38.230Z,1.98
2023-03-27T07:03:40.055Z,1.73
2023-03-27T07:05:42.657Z,2.00
2023-03-27T07:09:46.960Z,1.63
2023-03-27T07:11:48.698Z,1.73
2023-03-27T07:13:50.452Z,1.60
2023-03-27T07:15:52.380Z,1.80
2023-03-27T07:17:59.366Z,1.70
2023-03-27T07:20:01.474Z,1.63
2023-03-27T07:22:03.524Z,1.42
2023-03-27T07:24:05.487Z,1.95
2023-03-27T07:26:07.520Z,1.90
2023-03-27T07:28:13.924Z,1.75
2023-03-27T07:30:16.217Z,2.17
2023-03-27T07:32:29.675Z,2.05
2023-03-27T07:34:38.591Z,2.28
2023-03-27T07:36:40.417Z,2.35
2023-03-27T07:38:42.361Z,2.17
2023-03-27T07:40:46.513Z,2.15
2023-03-27T07:42:50.272Z,2.30
2023-03-27T07:44:52.054Z,2.58
2023-03-27T07:46:54.507Z,2.33
2023-03-27T07:48:57.558Z,2.53
2023-03-27T07:53:06.554Z,1.83
2023-03-27T07:55:08.830Z,1.98
2023-03-27T07:57:10.715Z,2.67
2023-03-27T07:59:12.456Z,2.20
2023-03-27T08:01:14.544Z,2.20
2023-03-27T08:03:18.566Z,2.00
2023-03-27T08:05:21.019Z,3.90
2023-03-27T08:07:25.078Z,2.30
2023-03-27T08:09:27.159Z,2.10
2023-03-27T08:11:31.000Z,2.03
2023-03-27T08:13:33.123Z,2.05
2023-03-27T08:15:34.878Z,2.08
2023-03-27T08:17:36.935Z,2.60
2023-03-27T08:19:38.817Z,2.50
2023-03-27T08:21:40.603Z,3.00
2023-03-27T08:23:42.761Z,3.30
2023-03-27T08:25:50.253Z,3.17
2023-03-27T08:27:52.982Z,3.45
2023-03-27T08:29:54.796Z,3.67
2023-03-27T08:31:56.550Z,3.75
2023-03-27T08:33:58.358Z,4.65
2023-03-27T08:36:00.285Z,4.40
2023-03-27T08:38:03.353Z,5.68
2023-03-27T08:40:13.177Z,5.38
2023-03-27T08:42:20.097Z,5.22
2023-03-27T08:44:24.654Z,5.47
2023-03-27T08:46:31.584Z,5.82
2023-03-27T08:49:02.236Z,5.90
2023-03-27T08:51:27.892Z,5.70
2023-03-27T08:53:36.391Z,6.55
2023-03-27T08:55:43.629Z,6.65
2023-03-27T08:57:46.596Z,6.10
2023-03-27T08:59:50.088Z,6.07
2023-03-27T09:02:18.911Z,5.10
2023-03-27T09:04:27.172Z,5.20
2023-03-27T09:06:39.672Z,4.75
2023-03-27T09:08:57.057Z,5.57
2023-03-27T09:11:15.678Z,4.65
2023-03-27T09:13:31.141Z,4.80
2023-03-27T09:15:37.373Z,5.38
2023-03-27T09:17:41.622Z,6.28
2023-03-27T09:20:06.381Z,7.57
2023-03-27T09:22:16.985Z,8.70
2023-03-27T09:24:44.672Z,7.57
2023-03-27T09:26:52.737Z,7.88
2023-03-27T09:29:19.920Z,8.18
2023-03-27T09:31:35.419Z,8.02
2023-03-27T09:33:41.469Z,8.80
2023-03-27T09:35:43.767Z,8.20
2023-03-27T09:37:46.991Z,8.57
2023-03-27T09:39:52.536Z,8.68
2023-03-27T09:42:06.782Z,8.25
2023-03-27T09:44:25.631Z,7.28
2023-03-27T09:46:28.539Z,8.00
2023-03-27T09:48:41.321Z,8.30
2023-03-27T09:50:47.319Z,8.27
2023-03-27T09:52:49.399Z,7.97
2023-03-27T09:54:54.035Z,9.05
2023-03-27T09:57:13.316Z,7.35
2023-03-27T09:59:26.230Z,8.80
2023-03-27T10:03:39.143Z,8.63
2023-03-27T10:05:41.826Z,8.90
2023-03-27T10:10:04.018Z,7.47
2023-03-27T10:12:06.301Z,8.45
2023-03-27T10:14:16.212Z,6.43
2023-03-27T10:16:20.975Z,7.60
2023-03-27T10:18:28.155Z,6.95
2023-03-27T10:20:30.415Z,7.40
2023-03-27T10:22:36.102Z,7.53
2023-03-27T10:24:46.040Z,5.78
2023-03-27T10:26:52.398Z,6.30
2023-03-27T10:29:01.580Z,6.40
2023-03-27T10:31:04.855Z,6.05
2023-03-27T10:33:07.605Z,6.20
2023-03-27T10:35:36.953Z,5.13
2023-03-27T10:37:41.433Z,5.55
2023-03-27T10:39:53.206Z,6.20
2023-03-27T10:41:55.498Z,5.60
2023-03-27T10:43:57.789Z,5.72
2023-03-27T10:46:05.021Z,5.50
2023-03-27T10:48:07.818Z,5.38
2023-03-27T10:50:30.364Z,5.95
2023-03-27T10:52:37.111Z,5.18
2023-03-27T10:55:00.621Z,5.57
2023-03-27T10:57:18.740Z,5.80
2023-03-27T10:59:41.543Z,4.55
2023-03-27T11:01:53.729Z,5.03
2023-03-27T11:04:04.591Z,4.97
2023-03-27T11:06:12.788Z,5.68
2023-03-27T11:08:32.031Z,5.45
2023-03-27T11:10:41.212Z,5.10
2023-03-27T11:12:58.655Z,4.35
2023-03-27T11:15:11.897Z,4.15
2023-03-27T11:17:20.162Z,4.82
2023-03-27T11:19:46.794Z,4.75
2023-03-27T11:21:59.905Z,4.50
2023-03-27T11:24:05.564Z,4.25
2023-03-27T11:26:11.570Z,4.65
2023-03-27T11:28:24.749Z,3.70
2023-03-27T11:30:44.357Z,4.88
2023-03-27T11:33:05.146Z,4.38
2023-03-27T11:35:23.135Z,3.65
2023-03-27T11:37:36.576Z,4.10
2023-03-27T11:39:48.360Z,4.53
2023-03-27T11:42:21.320Z,4.00
2023-03-27T11:44:24.870Z,3.63
2023-03-27T11:46:42.753Z,3.60
2023-03-27T11:48:56.840Z,3.88
2023-03-27T11:51:07.179Z,3.22
2023-03-27T11:53:48.018Z,2.97
2023-03-27T11:55:58.555Z,3.22
2023-03-27T11:58:23.687Z,3.15
2023-03-27T12:00:52.351Z,2.67
2023-03-27T12:03:29.349Z,3.00
2023-03-27T12:06:00.046Z,3.25
2023-03-27T12:08:09.173Z,3.20
2023-03-27T12:10:29.398Z,4.28
2023-03-27T12:12:56.380Z,4.00
2023-03-27T12:15:27.397Z,3.40
2023-03-27T12:17:50.298Z,3.72
2023-03-27T12:20:16.105Z,4.20
2023-03-27T12:22:30.060Z,3.15
2023-03-27T12:24:57.211Z,3.40
2023-03-27T12:27:29.212Z,3.20
2023-03-27T12:29:36.633Z,3.20
2023-03-27T12:32:16.264Z,3.22
2023-03-27T12:34:50.263Z,3.33
2023-03-27T12:36:53.607Z,3.08
2023-03-27T12:38:56.273Z,3.30
2023-03-27T12:43:20.783Z,2.30
2023-03-27T12:45:26.908Z,2.70
2023-03-27T12:47:29.935Z,2.83
2023-03-27T12:49:47.529Z,2.80
2023-03-27T12:51:53.692Z,2.47
2023-03-27T12:53:56.501Z,2.60
2023-03-27T12:58:33.643Z,2.50
2023-03-27T13:00:35.911Z,2.17
2023-03-27T13:03:06.600Z,2.28
2023-03-27T13:05:27.499Z,2.03
2023-03-27T13:07:43.909Z,2.05
2023-03-27T13:10:13.179Z,2.08
2023-03-27T13:12:45.286Z,2.20
2023-03-27T13:15:13.402Z,1.88
2023-03-27T13:17:44.195Z,1.85
2023-03-27T13:19:58.185Z,1.88
2023-03-27T13:22:03.705Z,2.00
2023-03-27T13:24:18.167Z,2.25
2023-03-27T13:26:46.793Z,1.73
2023-03-27T13:28:52.808Z,2.30
2023-03-27T13:30:57.254Z,1.88
2023-03-27T13:33:17.297Z,1.80
2023-03-27T13:35:21.881Z,2.05
2023-03-27T13:37:36.610Z,2.13
2023-03-27T13:39:59.242Z,2.17
2023-03-27T13:42:25.243Z,2.42
2023-03-27T13:44:28.174Z,2.85
2023-03-27T13:46:31.962Z,2.28
2023-03-27T13:48:48.509Z,2.28
2023-03-27T13:50:53.317Z,2.28
2023-03-27T13:53:20.862Z,2.20
2023-03-27T13:55:36.711Z,2.45
2023-03-27T13:57:53.475Z,2.58
2023-03-27T14:00:08.401Z,2.03
2023-03-27T14:02:43.013Z,2.00
2023-03-27T14:05:04.565Z,2.08
2023-03-27T14:07:16.287Z,2.17
2023-03-27T14:09:45.446Z,2.10
2023-03-27T14:12:24.242Z,2.05
2023-03-27T14:15:03.810Z,1.77
2023-03-27T14:17:24.372Z,1.63
2023-03-27T14:20:08.237Z,1.60
2023-03-27T14:24:38.307Z,1.58
2023-03-27T14:26:45.378Z,1.30
2023-03-27T14:28:59.188Z,1.58
2023-03-27T14:31:06.980Z,1.48
2023-03-27T14:33:11.119Z,1.55
2023-03-27T14:35:33.777Z,1.58
2023-03-27T14:37:36.543Z,1.50
2023-03-27T14:41:55.601Z,1.42
2023-03-27T14:44:03.799Z,2.10
2023-03-27T14:46:07.901Z,2.35
2023-03-27T14:48:17.594Z,1.50
2023-03-27T14:50:19.756Z,1.85
2023-03-27T14:52:33.381Z,2.00
2023-03-27T14:54:48.488Z,2.75
2023-03-27T14:57:09.231Z,2.53
2023-03-27T14:59:19.897Z,2.20
2023-03-27T15:01:21.818Z,2.13
2023-03-27T15:03:26.323Z,1.60
2023-03-27T15:05:28.322Z,2.10
2023-03-27T15:07:34.689Z,2.08
2023-03-27T15:09:37.350Z,1.40
2023-03-27T15:13:42.433Z,1.67
2023-03-27T15:15:47.019Z,1.60
2023-03-27T15:17:55.917Z,1.98
2023-03-27T15:20:10.289Z,1.90
2023-03-27T15:22:34.151Z,2.10
2023-03-27T15:24:51.453Z,1.90
2023-03-27T15:26:55.161Z,2.72
2023-03-27T15:29:07.674Z,1.90
2023-03-27T15:31:10.353Z,2.03
2023-03-27T15:35:23.825Z,1.92
2023-03-27T15:37:28.586Z,1.67
2023-03-27T15:39:31.808Z,1.65
2023-03-27T15:41:33.572Z,1.42
2023-03-27T15:43:35.619Z,1.70
2023-03-27T15:46:26.705Z,1.70
2023-03-27T15:48:40.409Z,1.92
2023-03-27T15:50:53.854Z,1.80
2023-03-27T15:52:58.241Z,1.55
2023-03-27T15:55:01.388Z,2.08
2023-03-27T15:57:11.616Z,1.75
2023-03-27T15:59:16.206Z,1.75
2023-03-27T16:01:22.622Z,1.40
2023-03-27T16:03:27.475Z,1.20
2023-03-27T16:05:29.899Z,1.42
2023-03-27T16:07:43.677Z,1.30
2023-03-27T16:10:05.132Z,1.40
2023-03-27T16:12:10.383Z,1.75
2023-03-27T16:14:22.585Z,1.83
2023-03-27T16:16:30.902Z,1.83
2023-03-27T16:18:40.516Z,1.60
2023-03-27T16:20:42.272Z,1.40
2023-03-27T16:22:44.119Z,1.40
2023-03-27T16:24:45.890Z,2.75
2023-03-27T16:26:48.130Z,1.55
2023-03-27T16:28:50.131Z,1.50
2023-03-27T16:30:51.903Z,1.92
2023-03-27T16:32:53.936Z,1.70
2023-03-27T16:34:56.139Z,1.92
2023-03-27T16:36:57.946Z,1.83
2023-03-27T16:38:59.827Z,1.20
2023-03-27T16:41:01.666Z,1.57
2023-03-27T16:43:03.449Z,1.60
2023-03-27T16:45:06.140Z,1.37
2023-03-27T16:49:12.758Z,2.03
2023-03-27T16:51:14.969Z,1.70
2023-03-27T16:53:16.825Z,1.70
2023-03-27T16:55:19.746Z,1.77
2023-03-27T16:57:21.596Z,2.00
2023-03-27T16:59:23.897Z,1.80
2023-03-27T17:01:25.796Z,2.20
2023-03-27T17:03:27.690Z,2.30
2023-03-27T17:05:34.227Z,1.95
2023-03-27T17:07:36.428Z,1.88
2023-03-27T17:09:38.415Z,2.10
2023-03-27T17:11:40.669Z,2.28
2023-03-27T17:13:43.745Z,2.28
2023-03-27T17:15:49.474Z,2.33
2023-03-27T17:17:52.273Z,2.35
2023-03-27T17:19:54.187Z,2.67
2023-03-27T17:21:56.100Z,2.75
2023-03-27T17:23:58.355Z,2.75
2023-03-27T17:26:01.805Z,3.13
2023-03-27T17:28:04.455Z,2.60
2023-03-27T17:32:09.317Z,2.47
2023-03-27T17:34:11.168Z,2.85
2023-03-27T17:36:16.176Z,2.97
2023-03-27T17:38:22.510Z,2.95
2023-03-27T17:40:24.393Z,3.28
2023-03-27T17:42:26.190Z,2.78
2023-03-27T17:44:28.075Z,2.97
2023-03-27T17:46:29.899Z,3.42
2023-03-27T17:48:36.343Z,3.35
2023-03-27T17:50:39.189Z,3.15
2023-03-27T17:52:40.994Z,2.92
2023-03-27T17:54:42.826Z,3.15
2023-03-27T17:56:44.622Z,4.40
2023-03-27T17:58:48.927Z,2.90
2023-03-27T18:00:51.027Z,2.70
2023-03-27T18:02:52.966Z,2.58
2023-03-27T18:04:54.761Z,3.60
2023-03-27T18:06:56.851Z,2.33
2023-03-27T18:08:58.697Z,2.03
2023-03-27T18:11:00.711Z,2.58
2023-03-27T18:13:02.808Z,2.70
2023-03-27T18:15:05.111Z,2.22
2023-03-27T18:17:06.878Z,2.35
2023-03-27T18:19:09.321Z,2.47
2023-03-27T18:21:11.140Z,2.35
2023-03-27T18:23:12.933Z,2.10
2023-03-27T18:25:14.850Z,2.90
2023-03-27T18:27:17.179Z,3.33
2023-03-27T18:29:21.174Z,2.50
2023-03-27T18:31:23.348Z,2.95
2023-03-27T18:33:25.302Z,2.88
2023-03-27T18:35:27.201Z,3.50
2023-03-27T18:37:28.980Z,3.40
2023-03-27T18:39:31.476Z,3.70
2023-03-27T18:41:35.492Z,2.95
2023-03-27T18:43:37.853Z,3.05
2023-03-27T18:45:39.638Z,3.95
2023-03-27T18:47:43.068Z,3.40
2023-03-27T18:49:46.062Z,3.17
2023-03-27T18:51:48.120Z,3.15
2023-03-27T18:53:50.928Z,3.42
2023-03-27T18:55:54.120Z,3.38
2023-03-27T18:57:56.327Z,2.97
2023-03-27T19:00:00.170Z,2.60
2023-03-27T19:02:02.376Z,2.83
2023-03-27T19:04:04.761Z,3.28
2023-03-27T19:06:07.976Z,2.92
2023-03-27T19:08:10.290Z,3.33
2023-03-27T19:10:13.681Z,3.25
2023-03-27T19:12:15.915Z,2.92
2023-03-27T19:14:18.077Z,3.80
2023-03-27T19:16:20.366Z,2.95
2023-03-27T19:18:22.689Z,3.83
2023-03-27T19:20:25.993Z,3.50
2023-03-27T19:22:28.181Z,3.42
2023-03-27T19:24:30.343Z,3.88
2023-03-27T19:26:34.583Z,4.22
2023-03-27T19:28:37.325Z,3.55
2023-03-27T19:30:39.536Z,3.60
2023-03-27T19:32:41.788Z,3.80
2023-03-27T19:34:44.693Z,2.90
2023-03-27T19:36:46.997Z,2.78
2023-03-27T19:38:49.230Z,3.08
2023-03-27T19:40:51.394Z,3.03
2023-03-27T19:42:53.609Z,3.08
2023-03-27T19:44:56.147Z,3.28
2023-03-27T19:49:00.975Z,2.88
2023-03-27T19:51:03.955Z,2.30
2023-03-27T19:53:09.006Z,2.70
2023-03-27T19:55:11.423Z,3.22
2023-03-27T19:57:13.738Z,2.45
2023-03-27T19:59:29.957Z,2.83
2023-03-27T20:01:33.379Z,2.70
2023-03-27T20:03:38.393Z,2.60
2023-03-27T20:05:41.394Z,2.90
2023-03-27T20:07:43.642Z,2.63
2023-03-27T20:09:46.172Z,2.53
2023-03-27T20:11:48.391Z,2.88
2023-03-27T20:13:56.540Z,2.95
2023-03-27T20:15:59.485Z,2.97
2023-03-27T20:18:02.606Z,2.95
2023-03-27T20:20:06.258Z,2.97
2023-03-27T20:22:09.202Z,3.47
2023-03-27T20:24:12.788Z,3.10
2023-03-27T20:26:15.027Z,2.75
2023-03-27T20:28:17.241Z,2.92
2023-03-27T20:30:19.464Z,2.80
2023-03-27T20:32:21.643Z,2.60
2023-03-27T20:34:24.307Z,4.20
2023-03-27T20:36:26.692Z,3.70
2023-03-27T20:38:31.533Z,2.83
2023-03-27T20:40:52.973Z,2.65
2023-03-27T20:43:03.447Z,2.85
2023-03-27T20:45:06.581Z,2.70
2023-03-27T20:47:12.401Z,2.90
2023-03-27T20:51:30.237Z,2.95
2023-03-27T20:53:34.082Z,3.05
2023-03-27T20:55:41.555Z,2.83
2023-03-27T20:57:52.170Z,3.08
2023-03-27T20:59:54.505Z,3.15
2023-03-27T21:01:56.682Z,3.33
2023-03-27T21:04:02.128Z,3.90
2023-03-27T21:06:08.647Z,3.33
2023-03-27T21:08:11.180Z,3.60
2023-03-27T21:12:15.794Z,3.13
2023-03-27T21:14:18.031Z,3.95
2023-03-27T21:16:20.284Z,3.15
2023-03-27T21:18:22.452Z,3.50
2023-03-27T21:20:24.597Z,3.22
2023-03-27T21:22:27.073Z,3.45
2023-03-27T21:24:29.236Z,3.58
2023-03-27T21:26:31.366Z,3.78
2023-03-27T21:28:33.577Z,3.50
2023-03-27T21:30:46.697Z,3.22
2023-03-27T21:32:50.826Z,3.47
2023-03-27T21:34:53.187Z,3.65
2023-03-27T21:36:55.506Z,3.95
2023-03-27T21:38:58.157Z,3.80
2023-03-27T21:43:02.501Z,3.47
2023-03-27T21:45:04.918Z,3.35
2023-03-27T21:49:09.303Z,3.55
2023-03-27T21:51:11.524Z,4.00
2023-03-27T21:53:13.756Z,3.53
2023-03-27T21:55:16.332Z,3.55
2023-03-27T21:59:20.834Z,3.42
2023-03-27T22:01:23.139Z,3.53
2023-03-27T22:03:25.854Z,3.53
2023-03-27T22:05:28.124Z,3.72
2023-03-27T22:07:30.452Z,4.00
2023-03-27T22:09:32.969Z,3.85
2023-03-27T22:13:37.813Z,3.30
2023-03-27T22:15:40.528Z,3.38
2023-03-27T22:17:42.717Z,3.78
2023-03-27T22:19:44.942Z,3.90
2023-03-27T22:21:47.344Z,3.38
2023-03-27T22:23:50.964Z,3.53
2023-03-27T22:25:54.000Z,3.65
2023-03-27T22:27:56.142Z,3.88
2023-03-27T22:29:58.302Z,4.00
2023-03-27T22:32:00.433Z,3.67
2023-03-27T22:34:04.567Z,3.78
2023-03-27T22:36:09.534Z,3.60
2023-03-27T22:38:11.729Z,3.80
2023-03-27T22:40:14.063Z,3.55
2023-03-27T22:42:16.414Z,3.50
2023-03-27T22:44:19.012Z,4.15
2023-03-27T22:48:23.205Z,3.33
2023-03-27T22:50:25.392Z,3.30
2023-03-27T22:52:27.529Z,3.47
2023-03-27T22:54:29.774Z,3.20
2023-03-27T22:56:31.887Z,3.85
2023-03-27T22:58:34.027Z,3.17
2023-03-27T23:00:36.252Z,3.47
2023-03-27T23:02:38.568Z,3.10
2023-03-27T23:04:40.851Z,3.55
2023-03-27T23:06:42.990Z,3.10
2023-03-27T23:08:45.322Z,3.60
2023-03-27T23:10:47.533Z,3.33
2023-03-27T23:12:49.692Z,3.60
2023-03-27T23:14:51.843Z,2.90
2023-03-27T23:16:54.032Z,3.60
2023-03-27T23:18:56.199Z,2.75
2023-03-27T23:20:59.896Z,3.20
2023-03-27T23:23:02.088Z,3.60
2023-03-27T23:25:04.414Z,3.28
2023-03-27T23:27:08.368Z,3.72
2023-03-27T23:29:10.684Z,3.25
2023-03-27T23:31:16.955Z,3.22
2023-03-27T23:33:19.261Z,3.30
2023-03-27T23:35:21.667Z,3.35
2023-03-27T23:37:23.854Z,3.45
2023-03-27T23:39:26.319Z,3.72
2023-03-27T23:41:29.453Z,3.50
2023-03-27T23:43:32.005Z,3.50
2023-03-27T23:47:36.327Z,3.90
2023-03-27T23:49:38.586Z,3.95
2023-03-27T23:51:40.785Z,3.50
2023-03-27T23:53:43.355Z,4.22
2023-03-27T23:57:47.833Z,3.92
2023-03-27T23:59:50.026Z,4.50
